createdAt,value
2017-05-29T00:00:11.193Z,996.91
2017-05-29T00:01:12.562Z,996.87
2017-05-29T00:02:13.953Z,996.87
2017-05-29T00:03:15.334Z,996.91
2017-05-29T00:04:16.722Z,996.88
2017-05-29T00:05:18.147Z,996.88
2017-05-29T00:06:19.516Z,996.89
2017-05-29T00:07:22.795Z,996.84
2017-05-29T00:08:24.173Z,996.90
2017-05-29T00:09:25.727Z,996.87
2017-05-29T00:10:27.122Z,996.84
2017-05-29T00:11:28.452Z,996.86
2017-05-29T00:12:29.825Z,996.79
2017-05-29T00:13:31.271Z,996.77
2017-05-29T00:14:32.650Z,996.73
2017-05-29T00:15:34.169Z,996.71
2017-05-29T00:16:35.542Z,996.68
2017-05-29T00:17:37.071Z,996.70
2017-05-29T00:18:38.352Z,996.75
2017-05-29T00:19:39.730Z,996.70
2017-05-29T00:20:41.088Z,996.70
2017-05-29T00:21:42.577Z,996.67
2017-05-29T00:22:44.073Z,996.70
2017-05-29T00:23:46.216Z,996.65
2017-05-29T00:24:47.586Z,996.63
2017-05-29T00:25:48.952Z,996.66
2017-05-29T00:26:50.363Z,996.63
2017-05-29T00:27:51.804Z,996.62
2017-05-29T00:28:53.148Z,996.62
2017-05-29T00:29:56.300Z,996.60
2017-05-29T00:30:57.822Z,996.56
2017-05-29T00:31:59.288Z,996.58
2017-05-29T00:33:00.696Z,996.53
2017-05-29T00:34:02.725Z,996.52
2017-05-29T00:35:04.099Z,996.50
2017-05-29T00:36:05.463Z,996.48
2017-05-29T00:37:06.833Z,996.46
2017-05-29T00:38:08.198Z,996.44
2017-05-29T00:39:09.568Z,996.45
2017-05-29T00:40:10.931Z,996.47
2017-05-29T00:41:12.294Z,996.42
2017-05-29T00:42:13.663Z,996.44
2017-05-29T00:43:15.727Z,996.40
2017-05-29T00:44:17.097Z,996.41
2017-05-29T00:45:18.504Z,996.38
2017-05-29T00:46:19.902Z,996.39
2017-05-29T00:47:21.265Z,996.42
2017-05-29T00:48:23.224Z,996.42
2017-05-29T00:49:24.618Z,996.43
2017-05-29T00:50:25.986Z,996.42
2017-05-29T00:51:27.356Z,996.43
2017-05-29T00:52:28.766Z,996.43
2017-05-29T00:53:30.129Z,996.38
2017-05-29T00:54:31.484Z,996.37
2017-05-29T00:55:32.853Z,996.38
2017-05-29T00:56:34.216Z,996.35
2017-05-29T00:57:35.548Z,996.34
2017-05-29T00:58:37.006Z,996.35
2017-05-29T00:59:38.410Z,996.33
2017-05-29T01:00:39.801Z,996.32
2017-05-29T01:01:41.163Z,996.30
2017-05-29T01:02:42.606Z,996.30
2017-05-29T01:03:43.972Z,996.27
2017-05-29T01:04:45.424Z,996.23
2017-05-29T01:05:46.803Z,996.24
2017-05-29T01:06:48.168Z,996.19
2017-05-29T01:07:49.530Z,996.15
2017-05-29T01:08:50.898Z,996.17
2017-05-29T01:09:52.266Z,996.11
2017-05-29T01:10:53.636Z,996.10
2017-05-29T01:11:54.993Z,996.07
2017-05-29T01:12:56.365Z,996.07
2017-05-29T01:13:57.951Z,996.03
2017-05-29T01:14:59.311Z,996.04
2017-05-29T01:16:00.678Z,996.03
2017-05-29T01:17:02.085Z,995.99
2017-05-29T01:18:03.446Z,996.01
2017-05-29T01:19:04.819Z,995.96
2017-05-29T01:20:06.184Z,995.94
2017-05-29T01:21:07.588Z,995.94
2017-05-29T01:22:08.975Z,995.93
2017-05-29T01:23:10.357Z,995.96
2017-05-29T01:24:11.720Z,995.98
2017-05-29T01:25:13.099Z,995.97
2017-05-29T01:26:14.518Z,996.01
2017-05-29T01:27:15.902Z,996.00
2017-05-29T01:28:17.264Z,995.99
2017-05-29T01:29:18.646Z,995.97
2017-05-29T01:30:20.035Z,995.96
2017-05-29T01:31:21.404Z,995.97
2017-05-29T01:32:22.804Z,995.95
2017-05-29T01:33:24.177Z,995.94
2017-05-29T01:34:25.549Z,995.92
2017-05-29T01:35:26.914Z,995.89
2017-05-29T01:36:28.282Z,995.87
2017-05-29T01:37:29.646Z,995.86
2017-05-29T01:38:31.006Z,995.84
2017-05-29T01:39:32.375Z,995.82
2017-05-29T01:40:33.807Z,995.86
2017-05-29T01:41:35.175Z,995.84
2017-05-29T01:42:36.541Z,995.81
2017-05-29T01:43:37.898Z,995.82
2017-05-29T01:44:39.265Z,995.81
2017-05-29T01:45:40.800Z,995.82
2017-05-29T01:46:42.172Z,995.81
2017-05-29T01:47:43.555Z,995.80
2017-05-29T01:48:44.916Z,995.82
2017-05-29T01:49:46.284Z,995.82
2017-05-29T01:50:47.660Z,995.80
2017-05-29T01:51:49.031Z,995.86
2017-05-29T01:52:50.611Z,995.85
2017-05-29T01:53:51.940Z,995.86
2017-05-29T01:54:53.315Z,995.87
2017-05-29T01:55:54.706Z,995.82
2017-05-29T01:56:56.089Z,995.79
2017-05-29T01:57:57.453Z,995.83
2017-05-29T01:58:58.815Z,995.75
2017-05-29T02:00:00.173Z,995.75
2017-05-29T02:01:01.541Z,995.76
2017-05-29T02:02:02.899Z,995.75
2017-05-29T02:03:04.267Z,995.74
2017-05-29T02:04:05.634Z,995.73
2017-05-29T02:05:07.007Z,995.73
2017-05-29T02:06:08.322Z,995.72
2017-05-29T02:07:09.675Z,995.72
2017-05-29T02:08:11.042Z,995.73
2017-05-29T02:09:12.406Z,995.75
2017-05-29T02:10:13.772Z,995.71
2017-05-29T02:11:15.152Z,995.72
2017-05-29T02:12:16.532Z,995.70
2017-05-29T02:13:17.883Z,995.73
2017-05-29T02:14:19.243Z,995.72
2017-05-29T02:15:20.613Z,995.73
2017-05-29T02:16:21.987Z,995.70
2017-05-29T02:17:23.346Z,995.70
2017-05-29T02:18:24.733Z,995.73
2017-05-29T02:19:26.769Z,995.71
2017-05-29T02:20:28.131Z,995.69
2017-05-29T02:21:29.647Z,995.72
2017-05-29T02:22:31.009Z,995.64
2017-05-29T02:23:32.378Z,995.66
2017-05-29T02:24:33.755Z,995.63
2017-05-29T02:25:35.154Z,995.58
2017-05-29T02:26:36.592Z,995.58
2017-05-29T02:27:38.018Z,995.58
2017-05-29T02:28:39.460Z,995.58
2017-05-29T02:29:40.879Z,995.59
2017-05-29T02:30:42.253Z,995.58
2017-05-29T02:31:44.234Z,995.57
2017-05-29T02:32:45.602Z,995.54
2017-05-29T02:33:47.009Z,995.56
2017-05-29T02:34:48.557Z,995.55
2017-05-29T02:35:49.937Z,995.54
2017-05-29T02:36:51.376Z,995.51
2017-05-29T02:37:52.849Z,995.56
2017-05-29T02:38:54.295Z,995.55
2017-05-29T02:39:55.676Z,995.57
2017-05-29T02:40:57.748Z,995.57
2017-05-29T02:41:59.742Z,995.56
2017-05-29T02:43:01.144Z,995.56
2017-05-29T02:44:02.580Z,995.53
2017-05-29T02:45:03.949Z,995.54
2017-05-29T02:46:05.334Z,995.53
2017-05-29T02:47:06.700Z,995.53
2017-05-29T02:48:08.069Z,995.48
2017-05-29T02:49:09.428Z,995.50
2017-05-29T02:50:10.798Z,995.53
2017-05-29T02:51:12.211Z,995.51
2017-05-29T02:52:13.598Z,995.49
2017-05-29T02:53:14.972Z,995.51
2017-05-29T02:54:16.336Z,995.52
2017-05-29T02:55:17.726Z,995.51
2017-05-29T02:56:19.141Z,995.51
2017-05-29T02:57:20.523Z,995.47
2017-05-29T02:58:21.891Z,995.50
2017-05-29T02:59:23.258Z,995.48
2017-05-29T03:00:24.668Z,995.48
2017-05-29T03:01:26.061Z,995.47
2017-05-29T03:02:27.469Z,995.44
2017-05-29T03:03:28.887Z,995.43
2017-05-29T03:04:30.289Z,995.41
2017-05-29T03:05:31.669Z,995.39
2017-05-29T03:06:33.103Z,995.41
2017-05-29T03:07:34.525Z,995.43
2017-05-29T03:08:35.914Z,995.44
2017-05-29T03:09:37.320Z,995.42
2017-05-29T03:10:38.729Z,995.46
2017-05-29T03:11:40.102Z,995.44
2017-05-29T03:12:41.465Z,995.46
2017-05-29T03:13:42.831Z,995.44
2017-05-29T03:14:44.205Z,995.48
2017-05-29T03:15:45.646Z,995.46
2017-05-29T03:16:47.019Z,995.49
2017-05-29T03:17:48.392Z,995.48
2017-05-29T03:18:49.765Z,995.53
2017-05-29T03:19:51.134Z,995.51
2017-05-29T03:20:52.496Z,995.53
2017-05-29T03:21:53.868Z,995.48
2017-05-29T03:22:55.245Z,995.48
2017-05-29T03:23:56.614Z,995.48
2017-05-29T03:24:58.067Z,995.48
2017-05-29T03:25:59.443Z,995.50
2017-05-29T03:27:00.808Z,995.46
2017-05-29T03:28:02.183Z,995.43
2017-05-29T03:29:03.637Z,995.43
2017-05-29T03:30:05.000Z,995.46
2017-05-29T03:31:06.392Z,995.44
2017-05-29T03:32:07.755Z,995.44
2017-05-29T03:33:09.152Z,995.45
2017-05-29T03:34:10.510Z,995.48
2017-05-29T03:35:11.887Z,995.45
2017-05-29T03:36:13.260Z,995.47
2017-05-29T03:37:14.625Z,995.50
2017-05-29T03:38:16.010Z,995.50
2017-05-29T03:39:17.379Z,995.51
2017-05-29T03:40:18.750Z,995.54
2017-05-29T03:41:20.113Z,995.57
2017-05-29T03:42:21.488Z,995.53
2017-05-29T03:43:22.856Z,995.50
2017-05-29T03:44:24.261Z,995.48
2017-05-29T03:45:25.629Z,995.52
2017-05-29T03:46:27.020Z,995.49
2017-05-29T03:47:28.386Z,995.51
2017-05-29T03:48:29.762Z,995.52
2017-05-29T03:49:31.123Z,995.49
2017-05-29T03:50:32.496Z,995.48
2017-05-29T03:51:33.868Z,995.47
2017-05-29T03:52:35.243Z,995.48
2017-05-29T03:53:36.619Z,995.51
2017-05-29T03:54:37.989Z,995.51
2017-05-29T03:55:39.359Z,995.55
2017-05-29T03:56:40.728Z,995.57
2017-05-29T03:57:42.099Z,995.55
2017-05-29T03:58:43.479Z,995.53
2017-05-29T03:59:44.869Z,995.54
2017-05-29T04:00:46.242Z,995.52
2017-05-29T04:01:47.619Z,995.50
2017-05-29T04:02:49.009Z,995.44
2017-05-29T04:03:50.383Z,995.45
2017-05-29T04:04:51.756Z,995.45
2017-05-29T04:05:53.126Z,995.45
2017-05-29T04:06:54.495Z,995.42
2017-05-29T04:07:55.859Z,995.48
2017-05-29T04:08:57.225Z,995.44
2017-05-29T04:09:58.623Z,995.48
2017-05-29T04:10:59.986Z,995.49
2017-05-29T04:12:01.350Z,995.45
2017-05-29T04:13:02.730Z,995.49
2017-05-29T04:14:04.125Z,995.49
2017-05-29T04:15:05.537Z,995.46
2017-05-29T04:16:06.910Z,995.46
2017-05-29T04:17:08.281Z,995.48
2017-05-29T04:18:09.658Z,995.45
2017-05-29T04:19:11.043Z,995.45
2017-05-29T04:20:12.406Z,995.42
2017-05-29T04:21:13.807Z,995.43
2017-05-29T04:22:15.239Z,995.42
2017-05-29T04:23:16.615Z,995.43
2017-05-29T04:24:17.987Z,995.46
2017-05-29T04:25:19.360Z,995.43
2017-05-29T04:26:20.727Z,995.45
2017-05-29T04:27:22.163Z,995.42
2017-05-29T04:28:23.536Z,995.44
2017-05-29T04:29:24.947Z,995.46
2017-05-29T04:30:26.313Z,995.45
2017-05-29T04:31:27.682Z,995.41
2017-05-29T04:32:29.055Z,995.41
2017-05-29T04:33:30.424Z,995.44
2017-05-29T04:34:31.800Z,995.42
2017-05-29T04:35:33.165Z,995.45
2017-05-29T04:36:34.547Z,995.39
2017-05-29T04:37:35.906Z,995.41
2017-05-29T04:38:37.276Z,995.44
2017-05-29T04:39:38.647Z,995.47
2017-05-29T04:40:40.012Z,995.49
2017-05-29T04:41:41.385Z,995.48
2017-05-29T04:42:42.751Z,995.51
2017-05-29T04:43:44.151Z,995.47
2017-05-29T04:44:45.517Z,995.44
2017-05-29T04:45:46.888Z,995.51
2017-05-29T04:46:48.280Z,995.49
2017-05-29T04:47:49.651Z,995.58
2017-05-29T04:48:51.013Z,995.55
2017-05-29T04:49:52.389Z,995.52
2017-05-29T04:50:53.762Z,995.57
2017-05-29T04:51:55.131Z,995.55
2017-05-29T04:52:56.511Z,995.55
2017-05-29T04:53:57.877Z,995.57
2017-05-29T04:54:59.242Z,995.61
2017-05-29T04:56:00.620Z,995.59
2017-05-29T04:57:01.997Z,995.61
2017-05-29T04:58:03.374Z,995.59
2017-05-29T04:59:04.802Z,995.56
2017-05-29T05:00:06.234Z,995.57
2017-05-29T05:01:07.556Z,995.53
2017-05-29T05:02:09.011Z,995.48
2017-05-29T05:03:11.286Z,995.50
2017-05-29T05:04:12.691Z,995.46
2017-05-29T05:05:14.065Z,995.41
2017-05-29T05:06:15.440Z,995.39
2017-05-29T05:07:16.829Z,995.33
2017-05-29T05:08:18.222Z,995.31
2017-05-29T05:09:19.591Z,995.32
2017-05-29T05:10:20.968Z,995.35
2017-05-29T05:11:22.361Z,995.35
2017-05-29T05:12:23.759Z,995.38
2017-05-29T05:13:25.133Z,995.40
2017-05-29T05:14:26.518Z,995.41
2017-05-29T05:15:27.918Z,995.40
2017-05-29T05:16:29.302Z,995.42
2017-05-29T05:17:30.675Z,995.37
2017-05-29T05:18:32.049Z,995.37
2017-05-29T05:19:33.425Z,995.36
2017-05-29T05:20:34.796Z,995.34
2017-05-29T05:21:36.179Z,995.37
2017-05-29T05:22:37.549Z,995.37
2017-05-29T05:23:38.918Z,995.39
2017-05-29T05:24:40.296Z,995.41
2017-05-29T05:25:41.667Z,995.46
2017-05-29T05:26:43.033Z,995.43
2017-05-29T05:27:44.397Z,995.44
2017-05-29T05:28:45.766Z,995.43
2017-05-29T05:29:47.140Z,995.45
2017-05-29T05:30:48.543Z,995.44
2017-05-29T05:31:49.930Z,995.46
2017-05-29T05:32:51.309Z,995.46
2017-05-29T05:33:52.686Z,995.50
2017-05-29T05:34:54.060Z,995.52
2017-05-29T05:35:55.439Z,995.51
2017-05-29T05:36:56.807Z,995.47
2017-05-29T05:37:58.228Z,995.45
2017-05-29T05:38:59.741Z,995.42
2017-05-29T05:40:01.194Z,995.44
2017-05-29T05:41:03.273Z,995.41
2017-05-29T05:42:04.640Z,995.40
2017-05-29T05:43:06.033Z,995.40
2017-05-29T05:44:07.405Z,995.37
2017-05-29T05:45:08.782Z,995.36
2017-05-29T05:46:10.174Z,995.33
2017-05-29T05:47:11.557Z,995.36
2017-05-29T05:48:12.927Z,995.36
2017-05-29T05:49:14.389Z,995.37
2017-05-29T05:50:15.754Z,995.37
2017-05-29T05:51:17.129Z,995.35
2017-05-29T05:52:18.518Z,995.38
2017-05-29T05:53:19.891Z,995.37
2017-05-29T05:54:21.266Z,995.35
2017-05-29T05:55:22.648Z,995.34
2017-05-29T05:56:24.011Z,995.31
2017-05-29T05:57:25.385Z,995.29
2017-05-29T05:58:26.760Z,995.26
2017-05-29T05:59:28.134Z,995.22
2017-05-29T06:00:29.574Z,995.26
2017-05-29T06:01:30.929Z,995.25
2017-05-29T06:02:32.343Z,995.26
2017-05-29T06:03:33.736Z,995.25
2017-05-29T06:04:35.204Z,995.24
2017-05-29T06:05:36.572Z,995.28
2017-05-29T06:06:38.065Z,995.28
2017-05-29T06:07:39.491Z,995.23
2017-05-29T06:08:40.862Z,995.23
2017-05-29T06:09:42.249Z,995.21
2017-05-29T06:10:43.625Z,995.26
2017-05-29T06:11:45.023Z,995.26
2017-05-29T06:12:46.391Z,995.25
2017-05-29T06:13:47.898Z,995.25
2017-05-29T06:14:49.272Z,995.22
2017-05-29T06:15:51.295Z,995.25
2017-05-29T06:16:52.677Z,995.20
2017-05-29T06:17:54.779Z,995.26
2017-05-29T06:18:56.146Z,995.31
2017-05-29T06:19:57.515Z,995.31
2017-05-29T06:20:58.895Z,995.30
2017-05-29T06:22:00.261Z,995.28
2017-05-29T06:23:01.634Z,995.29
2017-05-29T06:24:03.011Z,995.28
2017-05-29T06:25:04.376Z,995.30
2017-05-29T06:26:05.791Z,995.26
2017-05-29T06:27:07.791Z,995.23
2017-05-29T06:28:09.168Z,995.29
2017-05-29T06:29:10.563Z,995.28
2017-05-29T06:30:11.954Z,995.25
2017-05-29T06:31:13.325Z,995.31
2017-05-29T06:32:14.695Z,995.34
2017-05-29T06:33:16.104Z,995.32
2017-05-29T06:34:17.473Z,995.36
2017-05-29T06:35:18.901Z,995.32
2017-05-29T06:36:20.301Z,995.35
2017-05-29T06:37:21.691Z,995.36
2017-05-29T06:38:23.101Z,995.35
2017-05-29T06:39:24.472Z,995.34
2017-05-29T06:40:25.867Z,995.31
2017-05-29T06:41:27.260Z,995.32
2017-05-29T06:42:28.640Z,995.33
2017-05-29T06:43:30.038Z,995.33
2017-05-29T06:44:31.436Z,995.38
2017-05-29T06:45:32.922Z,995.38
2017-05-29T06:46:35.431Z,995.38
2017-05-29T06:47:37.806Z,995.42
2017-05-29T06:48:39.795Z,995.41
2017-05-29T06:49:41.796Z,995.44
2017-05-29T06:50:43.213Z,995.41
2017-05-29T06:51:47.312Z,995.45
2017-05-29T06:52:48.768Z,995.45
2017-05-29T06:53:50.186Z,995.42
2017-05-29T06:54:51.546Z,995.43
2017-05-29T06:55:52.945Z,995.43
2017-05-29T06:56:55.310Z,995.42
2017-05-29T06:57:58.306Z,995.39
2017-05-29T06:58:59.707Z,995.41
2017-05-29T07:00:01.076Z,995.40
2017-05-29T07:01:02.491Z,995.39
2017-05-29T07:02:04.799Z,995.35
2017-05-29T07:03:06.804Z,995.32
2017-05-29T07:04:08.836Z,995.30
2017-05-29T07:05:10.514Z,995.27
2017-05-29T07:06:12.864Z,995.31
2017-05-29T07:07:14.320Z,995.26
2017-05-29T07:08:15.706Z,995.31
2017-05-29T07:09:17.081Z,995.33
2017-05-29T07:10:18.479Z,995.31
2017-05-29T07:11:19.895Z,995.34
2017-05-29T07:12:21.805Z,995.32
2017-05-29T07:13:23.296Z,995.30
2017-05-29T07:14:26.320Z,995.31
2017-05-29T07:15:28.328Z,995.33
2017-05-29T07:16:29.779Z,995.36
2017-05-29T07:17:31.837Z,995.40
2017-05-29T07:18:33.246Z,995.39
2017-05-29T07:19:35.316Z,995.40
2017-05-29T07:20:37.304Z,995.40
2017-05-29T07:21:38.691Z,995.40
2017-05-29T07:22:41.789Z,995.39
2017-05-29T07:23:45.788Z,995.37
2017-05-29T07:24:48.794Z,995.40
2017-05-29T07:25:51.794Z,995.40
2017-05-29T07:26:54.802Z,995.42
2017-05-29T07:27:56.177Z,995.42
2017-05-29T07:28:58.300Z,995.38
2017-05-29T07:29:59.667Z,995.38
2017-05-29T07:31:01.056Z,995.41
2017-05-29T07:32:03.300Z,995.39
2017-05-29T07:33:04.679Z,995.40
2017-05-29T07:34:06.099Z,995.39
2017-05-29T07:35:07.495Z,995.41
2017-05-29T07:36:08.875Z,995.45
2017-05-29T07:37:10.281Z,995.41
2017-05-29T07:38:13.330Z,995.39
2017-05-29T07:39:14.718Z,995.41
2017-05-29T07:40:17.035Z,995.39
2017-05-29T07:41:19.315Z,995.38
2017-05-29T07:42:20.696Z,995.44
2017-05-29T07:43:23.796Z,995.45
2017-05-29T07:44:25.169Z,995.47
2017-05-29T07:45:26.624Z,995.41
2017-05-29T07:46:28.835Z,995.42
2017-05-29T07:47:30.239Z,995.44
2017-05-29T07:48:31.628Z,995.38
2017-05-29T07:49:33.004Z,995.38
2017-05-29T07:50:35.345Z,995.41
2017-05-29T07:51:36.721Z,995.43
2017-05-29T07:52:38.823Z,995.40
2017-05-29T07:53:40.817Z,995.41
2017-05-29T07:54:42.809Z,995.42
2017-05-29T07:55:44.807Z,995.44
2017-05-29T07:56:46.173Z,995.45
2017-05-29T07:57:48.316Z,995.44
2017-05-29T07:58:50.316Z,995.48
2017-05-29T07:59:52.307Z,995.47
2017-05-29T08:00:54.305Z,995.47
2017-05-29T08:01:57.309Z,995.48
2017-05-29T08:03:00.312Z,995.51
2017-05-29T08:04:02.308Z,995.47
2017-05-29T08:05:04.314Z,995.43
2017-05-29T08:06:05.737Z,995.45
2017-05-29T08:07:07.109Z,995.43
2017-05-29T08:08:08.494Z,995.46
2017-05-29T08:09:09.875Z,995.46
2017-05-29T08:10:11.888Z,995.44
2017-05-29T08:11:13.226Z,995.43
2017-05-29T08:12:14.609Z,995.42
2017-05-29T08:13:17.804Z,995.44
2017-05-29T08:14:19.234Z,995.45
2017-05-29T08:15:20.597Z,995.43
2017-05-29T08:16:22.838Z,995.47
2017-05-29T08:17:24.221Z,995.41
2017-05-29T08:18:26.312Z,995.37
2017-05-29T08:19:28.314Z,995.42
2017-05-29T08:20:29.730Z,995.43
2017-05-29T08:21:31.828Z,995.44
2017-05-29T08:22:33.207Z,995.43
2017-05-29T08:23:34.629Z,995.43
2017-05-29T08:24:36.812Z,995.40
2017-05-29T08:25:38.211Z,995.40
2017-05-29T08:26:39.589Z,995.39
2017-05-29T08:27:42.813Z,995.38
2017-05-29T08:28:44.817Z,995.33
2017-05-29T08:29:46.277Z,995.32
2017-05-29T08:30:48.318Z,995.30
2017-05-29T08:31:49.783Z,995.27
2017-05-29T08:32:51.180Z,995.32
2017-05-29T08:33:52.553Z,995.29
2017-05-29T08:34:54.810Z,995.32
2017-05-29T08:35:56.814Z,995.31
2017-05-29T08:36:58.196Z,995.31
2017-05-29T08:38:00.348Z,995.31
2017-05-29T08:39:03.325Z,995.27
2017-05-29T08:40:05.317Z,995.31
2017-05-29T08:41:06.743Z,995.30
2017-05-29T08:42:08.816Z,995.22
2017-05-29T08:43:11.817Z,995.24
2017-05-29T08:44:14.825Z,995.22
2017-05-29T08:45:16.827Z,995.24
2017-05-29T08:46:18.199Z,995.25
2017-05-29T08:47:19.577Z,995.25
2017-05-29T08:48:20.957Z,995.21
2017-05-29T08:49:23.329Z,995.28
2017-05-29T08:50:25.323Z,995.24
2017-05-29T08:51:26.696Z,995.23
2017-05-29T08:52:28.077Z,995.23
2017-05-29T08:53:30.335Z,995.19
2017-05-29T08:54:31.724Z,995.19
2017-05-29T08:55:33.111Z,995.24
2017-05-29T08:56:35.474Z,995.25
2017-05-29T08:57:36.846Z,995.22
2017-05-29T08:58:38.228Z,995.21
2017-05-29T08:59:39.629Z,995.19
2017-05-29T09:00:41.020Z,995.22
2017-05-29T09:01:42.398Z,995.22
2017-05-29T09:02:44.382Z,995.25
2017-05-29T09:03:46.478Z,995.27
2017-05-29T09:04:47.866Z,995.28
2017-05-29T09:05:49.904Z,995.27
2017-05-29T09:06:51.303Z,995.21
2017-05-29T09:07:52.745Z,995.30
2017-05-29T09:08:54.825Z,995.23
2017-05-29T09:09:56.221Z,995.22
2017-05-29T09:10:58.345Z,995.16
2017-05-29T09:11:59.751Z,995.20
2017-05-29T09:13:03.938Z,995.18
2017-05-29T09:14:05.320Z,995.16
2017-05-29T09:15:06.723Z,995.22
2017-05-29T09:16:09.843Z,995.17
2017-05-29T09:17:11.259Z,995.18
2017-05-29T09:18:13.347Z,995.23
2017-05-29T09:19:14.725Z,995.17
2017-05-29T09:20:16.108Z,995.22
2017-05-29T09:21:17.491Z,995.18
2017-05-29T09:22:19.882Z,995.22
2017-05-29T09:23:23.082Z,995.19
2017-05-29T09:24:24.449Z,995.19
2017-05-29T09:25:25.828Z,995.20
2017-05-29T09:26:27.213Z,995.16
2017-05-29T09:27:28.612Z,995.18
2017-05-29T09:28:29.988Z,995.15
2017-05-29T09:29:31.373Z,995.18
2017-05-29T09:30:32.752Z,995.18
2017-05-29T09:31:34.144Z,995.12
2017-05-29T09:32:35.522Z,995.16
2017-05-29T09:33:37.925Z,995.08
2017-05-29T09:34:39.355Z,995.07
2017-05-29T09:35:40.733Z,995.10
2017-05-29T09:36:42.135Z,995.12
2017-05-29T09:37:43.511Z,995.13
2017-05-29T09:38:44.975Z,995.13
2017-05-29T09:39:46.402Z,995.09
2017-05-29T09:40:48.345Z,995.07
2017-05-29T09:41:49.739Z,995.07
2017-05-29T09:42:51.118Z,995.04
2017-05-29T09:43:52.497Z,995.05
2017-05-29T09:44:54.833Z,995.01
2017-05-29T09:45:56.845Z,994.99
2017-05-29T09:46:58.234Z,994.95
2017-05-29T09:48:00.339Z,995.01
2017-05-29T09:49:01.725Z,995.04
2017-05-29T09:50:03.110Z,995.01
2017-05-29T09:51:04.534Z,995.00
2017-05-29T09:52:05.908Z,995.02
2017-05-29T09:53:07.285Z,995.00
2017-05-29T09:54:08.676Z,995.00
2017-05-29T09:55:11.846Z,995.00
2017-05-29T09:56:13.242Z,994.97
2017-05-29T09:57:14.651Z,994.99
2017-05-29T09:58:16.851Z,994.96
2017-05-29T09:59:18.845Z,994.96
2017-05-29T10:00:21.994Z,994.93
2017-05-29T10:01:23.370Z,994.95
2017-05-29T10:02:25.352Z,994.95
2017-05-29T10:03:26.732Z,994.99
2017-05-29T10:04:28.837Z,994.93
2017-05-29T10:05:30.237Z,994.92
2017-05-29T10:06:31.639Z,994.90
2017-05-29T10:07:34.893Z,994.92
2017-05-29T10:08:36.262Z,994.91
2017-05-29T10:09:38.343Z,994.87
2017-05-29T10:10:39.717Z,994.88
2017-05-29T10:11:41.100Z,994.89
2017-05-29T10:12:43.378Z,994.92
2017-05-29T10:13:44.750Z,994.89
2017-05-29T10:14:46.145Z,994.91
2017-05-29T10:15:49.412Z,994.89
2017-05-29T10:16:50.810Z,994.89
2017-05-29T10:17:53.847Z,994.89
2017-05-29T10:18:55.851Z,994.85
2017-05-29T10:19:57.228Z,994.86
2017-05-29T10:20:58.602Z,994.85
2017-05-29T10:22:00.860Z,994.89
2017-05-29T10:23:02.272Z,994.89
2017-05-29T10:24:04.356Z,994.85
2017-05-29T10:25:06.349Z,994.83
2017-05-29T10:26:07.729Z,994.82
2017-05-29T10:27:09.110Z,994.85
2017-05-29T10:28:12.533Z,994.78
2017-05-29T10:29:13.919Z,994.84
2017-05-29T10:30:15.863Z,994.84
2017-05-29T10:31:17.855Z,994.83
2017-05-29T10:32:19.233Z,994.82
2017-05-29T10:33:20.620Z,994.82
2017-05-29T10:34:21.999Z,994.79
2017-05-29T10:35:23.387Z,994.80
2017-05-29T10:36:24.769Z,994.77
2017-05-29T10:37:26.143Z,994.79
2017-05-29T10:38:27.523Z,994.80
2017-05-29T10:39:28.908Z,994.73
2017-05-29T10:40:30.364Z,994.76
2017-05-29T10:41:31.653Z,994.78
2017-05-29T10:42:34.865Z,994.73
2017-05-29T10:43:36.255Z,994.71
2017-05-29T10:44:37.626Z,994.69
2017-05-29T10:45:39.006Z,994.66
2017-05-29T10:46:40.387Z,994.68
2017-05-29T10:47:41.775Z,994.64
2017-05-29T10:48:43.154Z,994.61
2017-05-29T10:49:44.535Z,994.61
2017-05-29T10:50:45.903Z,994.58
2017-05-29T10:51:47.277Z,994.58
2017-05-29T10:52:50.348Z,994.54
2017-05-29T10:53:51.721Z,994.59
2017-05-29T10:54:53.098Z,994.56
2017-05-29T10:55:54.520Z,994.55
2017-05-29T10:56:56.898Z,994.56
2017-05-29T10:57:58.275Z,994.60
2017-05-29T10:58:59.670Z,994.58
2017-05-29T11:00:01.292Z,994.55
2017-05-29T11:01:02.678Z,994.57
2017-05-29T11:02:04.074Z,994.55
2017-05-29T11:03:06.366Z,994.62
2017-05-29T11:04:07.747Z,994.56
2017-05-29T11:05:09.340Z,994.57
2017-05-29T11:06:10.750Z,994.56
2017-05-29T11:07:12.124Z,994.54
2017-05-29T11:08:15.350Z,994.55
2017-05-29T11:09:16.733Z,994.53
2017-05-29T11:10:18.899Z,994.53
2017-05-29T11:11:20.294Z,994.57
2017-05-29T11:12:21.793Z,994.56
2017-05-29T11:13:23.178Z,994.52
2017-05-29T11:14:24.577Z,994.53
2017-05-29T11:15:25.965Z,994.53
2017-05-29T11:16:27.349Z,994.52
2017-05-29T11:17:28.785Z,994.54
2017-05-29T11:18:30.173Z,994.51
2017-05-29T11:19:31.635Z,994.50
2017-05-29T11:20:33.013Z,994.51
2017-05-29T11:21:34.391Z,994.47
2017-05-29T11:22:35.795Z,994.50
2017-05-29T11:23:38.518Z,994.45
2017-05-29T11:24:39.903Z,994.47
2017-05-29T11:25:41.863Z,994.43
2017-05-29T11:26:45.862Z,994.40
2017-05-29T11:27:48.867Z,994.42
2017-05-29T11:28:50.305Z,994.43
2017-05-29T11:29:51.938Z,994.44
2017-05-29T11:30:53.410Z,994.39
2017-05-29T11:31:54.806Z,994.40
2017-05-29T11:32:56.192Z,994.36
2017-05-29T11:33:57.586Z,994.35
2017-05-29T11:35:01.881Z,994.31
2017-05-29T11:36:03.337Z,994.33
2017-05-29T11:37:04.716Z,994.31
2017-05-29T11:38:06.099Z,994.29
2017-05-29T11:39:08.378Z,994.29
2017-05-29T11:40:09.763Z,994.31
2017-05-29T11:41:11.147Z,994.29
2017-05-29T11:42:12.524Z,994.29
2017-05-29T11:43:13.910Z,994.25
2017-05-29T11:44:15.306Z,994.23
2017-05-29T11:45:16.689Z,994.23
2017-05-29T11:46:18.078Z,994.21
2017-05-29T11:47:19.460Z,994.20
2017-05-29T11:48:20.834Z,994.22
2017-05-29T11:49:22.243Z,994.16
2017-05-29T11:50:25.362Z,994.19
2017-05-29T11:51:28.367Z,994.19
2017-05-29T11:52:29.750Z,994.20
2017-05-29T11:53:31.127Z,994.19
2017-05-29T11:54:33.389Z,994.16
2017-05-29T11:55:34.771Z,994.15
2017-05-29T11:56:36.159Z,994.10
2017-05-29T11:57:37.535Z,994.13
2017-05-29T11:58:38.910Z,994.10
2017-05-29T11:59:40.283Z,994.10
2017-05-29T12:00:42.372Z,994.07
2017-05-29T12:01:43.794Z,994.09
2017-05-29T12:02:45.174Z,994.12
2017-05-29T12:03:48.372Z,994.08
2017-05-29T12:04:49.806Z,994.06
2017-05-29T12:05:51.188Z,994.06
2017-05-29T12:06:52.568Z,994.03
2017-05-29T12:07:53.980Z,994.00
2017-05-29T12:08:55.453Z,994.01
2017-05-29T12:09:56.970Z,994.00
2017-05-29T12:10:58.872Z,993.97
2017-05-29T12:12:00.259Z,993.93
2017-05-29T12:13:02.380Z,993.93
2017-05-29T12:14:03.759Z,993.95
2017-05-29T12:15:05.875Z,993.91
2017-05-29T12:16:08.881Z,993.96
2017-05-29T12:17:10.311Z,993.90
2017-05-29T12:18:11.696Z,993.89
2017-05-29T12:19:13.086Z,993.91
2017-05-29T12:20:14.472Z,993.91
2017-05-29T12:21:15.861Z,993.88
2017-05-29T12:22:17.249Z,993.84
2017-05-29T12:23:18.731Z,993.80
2017-05-29T12:24:20.135Z,993.82
2017-05-29T12:25:22.381Z,993.81
2017-05-29T12:26:23.776Z,993.85
2017-05-29T12:27:25.145Z,993.83
2017-05-29T12:28:27.409Z,993.82
2017-05-29T12:29:28.836Z,993.78
2017-05-29T12:30:30.234Z,993.74
2017-05-29T12:31:31.614Z,993.70
2017-05-29T12:32:32.991Z,993.65
2017-05-29T12:33:34.385Z,993.67
2017-05-29T12:34:35.763Z,993.64
2017-05-29T12:35:37.156Z,993.69
2017-05-29T12:36:38.539Z,993.70
2017-05-29T12:37:39.916Z,993.63
2017-05-29T12:38:41.884Z,993.64
2017-05-29T12:39:43.274Z,993.64
2017-05-29T12:40:44.644Z,993.65
2017-05-29T12:41:46.903Z,993.57
2017-05-29T12:42:48.285Z,993.55
2017-05-29T12:43:49.675Z,993.54
2017-05-29T12:44:51.055Z,993.51
2017-05-29T12:45:52.438Z,993.61
2017-05-29T12:46:53.822Z,993.56
2017-05-29T12:47:55.196Z,993.57